sensor_id;sensor_type;location;lat;lon;timestamp;temperature;humidity
77693;SHT31;66984;47.404;18.836;2023-09-19T00:00:06;24.25;59.34
77693;SHT31;66984;47.404;18.836;2023-09-19T00:01:09;24.22;59.37
77693;SHT31;66984;47.404;18.836;2023-09-19T00:02:14;24.24;59.48
77693;SHT31;66984;47.404;18.836;2023-09-19T00:03:17;24.22;59.43
77693;SHT31;66984;47.404;18.836;2023-09-19T00:04:20;24.20;59.61
77693;SHT31;66984;47.404;18.836;2023-09-19T00:05:29;24.16;59.58
77693;SHT31;66984;47.404;18.836;2023-09-19T00:06:32;24.14;59.66
77693;SHT31;66984;47.404;18.836;2023-09-19T00:07:35;24.14;59.70
77693;SHT31;66984;47.404;18.836;2023-09-19T00:08:39;24.13;59.72
77693;SHT31;66984;47.404;18.836;2023-09-19T00:09:42;24.14;59.68
77693;SHT31;66984;47.404;18.836;2023-09-19T00:10:50;24.14;59.77
77693;SHT31;66984;47.404;18.836;2023-09-19T00:11:53;24.13;59.83
77693;SHT31;66984;47.404;18.836;2023-09-19T00:12:58;24.13;59.87
77693;SHT31;66984;47.404;18.836;2023-09-19T00:14:07;24.13;59.86
77693;SHT31;66984;47.404;18.836;2023-09-19T00:15:11;24.11;59.85
77693;SHT31;66984;47.404;18.836;2023-09-19T00:16:14;24.13;59.79
77693;SHT31;66984;47.404;18.836;2023-09-19T00:17:18;24.10;59.95
77693;SHT31;66984;47.404;18.836;2023-09-19T00:18:21;24.11;60.01
77693;SHT31;66984;47.404;18.836;2023-09-19T00:19:24;24.11;60.09
77693;SHT31;66984;47.404;18.836;2023-09-19T00:20:27;24.10;60.13
77693;SHT31;66984;47.404;18.836;2023-09-19T00:21:32;24.07;60.07
77693;SHT31;66984;47.404;18.836;2023-09-19T00:22:39;24.06;60.01
77693;SHT31;66984;47.404;18.836;2023-09-19T00:23:42;24.08;60.24
77693;SHT31;66984;47.404;18.836;2023-09-19T00:24:45;24.06;60.20
77693;SHT31;66984;47.404;18.836;2023-09-19T00:25:48;24.06;60.15
77693;SHT31;66984;47.404;18.836;2023-09-19T00:26:53;24.07;60.19
77693;SHT31;66984;47.404;18.836;2023-09-19T00:27:56;24.06;60.25
77693;SHT31;66984;47.404;18.836;2023-09-19T00:29:00;24.03;60.52
77693;SHT31;66984;47.404;18.836;2023-09-19T00:30:08;24.03;60.48
77693;SHT31;66984;47.404;18.836;2023-09-19T00:31:16;24.03;60.45
77693;SHT31;66984;47.404;18.836;2023-09-19T00:32:20;24.01;60.41
77693;SHT31;66984;47.404;18.836;2023-09-19T00:33:24;24.03;60.43
77693;SHT31;66984;47.404;18.836;2023-09-19T00:34:27;24.01;60.45
77693;SHT31;66984;47.404;18.836;2023-09-19T00:35:30;24.00;60.45
77693;SHT31;66984;47.404;18.836;2023-09-19T00:36:33;24.01;60.47
77693;SHT31;66984;47.404;18.836;2023-09-19T00:37:37;23.98;60.55
77693;SHT31;66984;47.404;18.836;2023-09-19T00:38:42;23.96;60.64
77693;SHT31;66984;47.404;18.836;2023-09-19T00:39:47;23.96;60.72
77693;SHT31;66984;47.404;18.836;2023-09-19T00:40:50;23.97;60.76
77693;SHT31;66984;47.404;18.836;2023-09-19T00:41:59;24.00;60.79
77693;SHT31;66984;47.404;18.836;2023-09-19T00:43:07;23.97;60.88
77693;SHT31;66984;47.404;18.836;2023-09-19T00:44:11;23.98;60.87
77693;SHT31;66984;47.404;18.836;2023-09-19T00:45:16;24.00;60.85
77693;SHT31;66984;47.404;18.836;2023-09-19T00:46:20;23.98;60.80
77693;SHT31;66984;47.404;18.836;2023-09-19T00:47:23;23.93;60.97
77693;SHT31;66984;47.404;18.836;2023-09-19T00:48:26;23.93;60.99
77693;SHT31;66984;47.404;18.836;2023-09-19T00:49:32;23.92;61.03
77693;SHT31;66984;47.404;18.836;2023-09-19T00:50:35;23.93;61.04
77693;SHT31;66984;47.404;18.836;2023-09-19T00:51:39;23.94;61.09
77693;SHT31;66984;47.404;18.836;2023-09-19T00:52:46;23.88;61.19
77693;SHT31;66984;47.404;18.836;2023-09-19T00:53:49;23.87;61.30
77693;SHT31;66984;47.404;18.836;2023-09-19T00:54:52;23.86;61.38
77693;SHT31;66984;47.404;18.836;2023-09-19T00:55:55;23.86;61.52
77693;SHT31;66984;47.404;18.836;2023-09-19T00:56:59;23.83;61.45
77693;SHT31;66984;47.404;18.836;2023-09-19T00:58:02;23.86;61.44
77693;SHT31;66984;47.404;18.836;2023-09-19T00:59:04;23.84;61.41
77693;SHT31;66984;47.404;18.836;2023-09-19T01:00:09;23.84;61.35
77693;SHT31;66984;47.404;18.836;2023-09-19T01:01:18;23.86;61.32
77693;SHT31;66984;47.404;18.836;2023-09-19T01:02:21;23.88;61.43
77693;SHT31;66984;47.404;18.836;2023-09-19T01:03:25;23.88;61.29
77693;SHT31;66984;47.404;18.836;2023-09-19T01:04:28;23.86;61.35
77693;SHT31;66984;47.404;18.836;2023-09-19T01:05:32;23.88;61.40
77693;SHT31;66984;47.404;18.836;2023-09-19T01:06:36;23.86;61.55
77693;SHT31;66984;47.404;18.836;2023-09-19T01:07:39;23.81;61.69
77693;SHT31;66984;47.404;18.836;2023-09-19T01:08:47;23.81;61.86
77693;SHT31;66984;47.404;18.836;2023-09-19T01:09:50;23.80;61.81
77693;SHT31;66984;47.404;18.836;2023-09-19T01:10:59;23.77;61.71
77693;SHT31;66984;47.404;18.836;2023-09-19T01:12:06;23.79;61.70
77693;SHT31;66984;47.404;18.836;2023-09-19T01:15:14;23.76;61.64
77693;SHT31;66984;47.404;18.836;2023-09-19T01:17:59;23.76;61.57
77693;SHT31;66984;47.404;18.836;2023-09-19T01:20:40;23.77;61.58
77693;SHT31;66984;47.404;18.836;2023-09-19T01:22:16;23.76;61.57
77693;SHT31;66984;47.404;18.836;2023-09-19T01:23:37;23.79;61.83
77693;SHT31;66984;47.404;18.836;2023-09-19T01:28:53;23.71;62.12
77693;SHT31;66984;47.404;18.836;2023-09-19T01:30:14;23.71;62.14
77693;SHT31;66984;47.404;18.836;2023-09-19T01:31:21;23.71;62.41
77693;SHT31;66984;47.404;18.836;2023-09-19T01:32:26;23.71;62.36
77693;SHT31;66984;47.404;18.836;2023-09-19T01:33:58;23.71;62.16
77693;SHT31;66984;47.404;18.836;2023-09-19T01:35:07;23.69;62.29
77693;SHT31;66984;47.404;18.836;2023-09-19T01:36:15;23.74;62.28
77693;SHT31;66984;47.404;18.836;2023-09-19T01:37:20;23.71;62.28
77693;SHT31;66984;47.404;18.836;2023-09-19T01:38:29;23.69;62.19
77693;SHT31;66984;47.404;18.836;2023-09-19T01:39:32;23.67;62.18
77693;SHT31;66984;47.404;18.836;2023-09-19T01:40:41;23.70;62.08
77693;SHT31;66984;47.404;18.836;2023-09-19T01:43:28;23.63;62.60
77693;SHT31;66984;47.404;18.836;2023-09-19T01:47:11;23.69;62.42
77693;SHT31;66984;47.404;18.836;2023-09-19T01:51:00;23.62;62.92
77693;SHT31;66984;47.404;18.836;2023-09-19T01:52:14;23.59;62.97
77693;SHT31;66984;47.404;18.836;2023-09-19T01:53:26;23.60;62.92
77693;SHT31;66984;47.404;18.836;2023-09-19T01:54:34;23.58;62.95
77693;SHT31;66984;47.404;18.836;2023-09-19T01:55:47;23.62;62.93
77693;SHT31;66984;47.404;18.836;2023-09-19T01:57:15;23.56;63.04
77693;SHT31;66984;47.404;18.836;2023-09-19T01:58:24;23.52;63.20
77693;SHT31;66984;47.404;18.836;2023-09-19T01:59:36;23.53;63.15
77693;SHT31;66984;47.404;18.836;2023-09-19T02:00:44;23.48;63.36
77693;SHT31;66984;47.404;18.836;2023-09-19T02:01:48;23.48;63.35
77693;SHT31;66984;47.404;18.836;2023-09-19T02:02:53;23.48;63.34
77693;SHT31;66984;47.404;18.836;2023-09-19T02:03:58;23.48;63.31
77693;SHT31;66984;47.404;18.836;2023-09-19T02:05:02;23.46;63.37
77693;SHT31;66984;47.404;18.836;2023-09-19T02:06:07;23.48;63.60
77693;SHT31;66984;47.404;18.836;2023-09-19T02:07:14;23.46;63.62
77693;SHT31;66984;47.404;18.836;2023-09-19T02:08:19;23.43;63.61
77693;SHT31;66984;47.404;18.836;2023-09-19T02:09:22;23.45;63.59
77693;SHT31;66984;47.404;18.836;2023-09-19T02:10:25;23.45;63.61
77693;SHT31;66984;47.404;18.836;2023-09-19T02:11:28;23.46;63.52
77693;SHT31;66984;47.404;18.836;2023-09-19T02:12:32;23.43;63.62
77693;SHT31;66984;47.404;18.836;2023-09-19T02:13:35;23.42;63.64
77693;SHT31;66984;47.404;18.836;2023-09-19T02:14:38;23.42;63.66
77693;SHT31;66984;47.404;18.836;2023-09-19T02:15:41;23.42;63.65
77693;SHT31;66984;47.404;18.836;2023-09-19T02:16:46;23.39;63.93
77693;SHT31;66984;47.404;18.836;2023-09-19T02:17:50;23.33;63.91
77693;SHT31;66984;47.404;18.836;2023-09-19T02:18:54;23.33;63.84
77693;SHT31;66984;47.404;18.836;2023-09-19T02:19:57;23.35;63.83
77693;SHT31;66984;47.404;18.836;2023-09-19T02:21:02;23.30;64.00
77693;SHT31;66984;47.404;18.836;2023-09-19T02:22:05;23.30;64.01
77693;SHT31;66984;47.404;18.836;2023-09-19T02:23:10;23.32;63.94
77693;SHT31;66984;47.404;18.836;2023-09-19T02:24:13;23.32;63.87
77693;SHT31;66984;47.404;18.836;2023-09-19T02:25:18;23.30;63.99
77693;SHT31;66984;47.404;18.836;2023-09-19T02:26:22;23.30;64.09
77693;SHT31;66984;47.404;18.836;2023-09-19T02:27:29;23.28;64.12
77693;SHT31;66984;47.404;18.836;2023-09-19T02:28:34;23.29;64.13
77693;SHT31;66984;47.404;18.836;2023-09-19T02:29:38;23.28;64.19
77693;SHT31;66984;47.404;18.836;2023-09-19T02:30:41;23.22;64.24
77693;SHT31;66984;47.404;18.836;2023-09-19T02:31:44;23.22;64.21
77693;SHT31;66984;47.404;18.836;2023-09-19T02:32:48;23.26;64.34
77693;SHT31;66984;47.404;18.836;2023-09-19T02:33:52;23.23;64.44
77693;SHT31;66984;47.404;18.836;2023-09-19T02:34:55;23.26;64.51
77693;SHT31;66984;47.404;18.836;2023-09-19T02:35:58;23.22;64.45
77693;SHT31;66984;47.404;18.836;2023-09-19T02:37:05;23.22;64.40
77693;SHT31;66984;47.404;18.836;2023-09-19T02:38:08;23.23;64.41
77693;SHT31;66984;47.404;18.836;2023-09-19T02:39:14;23.21;64.37
77693;SHT31;66984;47.404;18.836;2023-09-19T02:40:17;23.19;64.43
77693;SHT31;66984;47.404;18.836;2023-09-19T02:41:22;23.16;64.50
77693;SHT31;66984;47.404;18.836;2023-09-19T02:42:25;23.12;64.72
77693;SHT31;66984;47.404;18.836;2023-09-19T02:43:28;23.08;64.79
77693;SHT31;66984;47.404;18.836;2023-09-19T02:44:31;23.05;64.76
77693;SHT31;66984;47.404;18.836;2023-09-19T02:45:35;23.00;64.72
77693;SHT31;66984;47.404;18.836;2023-09-19T02:46:38;22.97;64.74
77693;SHT31;66984;47.404;18.836;2023-09-19T02:47:41;22.97;64.78
77693;SHT31;66984;47.404;18.836;2023-09-19T02:48:44;22.94;64.86
77693;SHT31;66984;47.404;18.836;2023-09-19T02:49:47;22.88;65.01
77693;SHT31;66984;47.404;18.836;2023-09-19T02:50:50;22.87;65.04
77693;SHT31;66984;47.404;18.836;2023-09-19T02:51:53;22.84;65.13
77693;SHT31;66984;47.404;18.836;2023-09-19T02:52:57;22.81;65.19
77693;SHT31;66984;47.404;18.836;2023-09-19T02:54:00;22.74;65.37
77693;SHT31;66984;47.404;18.836;2023-09-19T02:55:03;22.77;65.45
77693;SHT31;66984;47.404;18.836;2023-09-19T02:56:08;22.70;65.48
77693;SHT31;66984;47.404;18.836;2023-09-19T02:57:12;22.71;65.58
77693;SHT31;66984;47.404;18.836;2023-09-19T02:58:16;22.68;65.59
77693;SHT31;66984;47.404;18.836;2023-09-19T02:59:21;22.68;65.64
77693;SHT31;66984;47.404;18.836;2023-09-19T03:00:24;22.68;65.62
77693;SHT31;66984;47.404;18.836;2023-09-19T03:01:27;22.68;65.61
77693;SHT31;66984;47.404;18.836;2023-09-19T03:02:33;22.70;65.63
77693;SHT31;66984;47.404;18.836;2023-09-19T03:03:37;22.72;65.61
77693;SHT31;66984;47.404;18.836;2023-09-19T03:04:42;22.74;65.60
77693;SHT31;66984;47.404;18.836;2023-09-19T03:05:45;22.72;65.59
77693;SHT31;66984;47.404;18.836;2023-09-19T03:06:53;22.75;65.64
77693;SHT31;66984;47.404;18.836;2023-09-19T03:08:01;22.75;65.65
77693;SHT31;66984;47.404;18.836;2023-09-19T03:09:04;22.75;65.64
77693;SHT31;66984;47.404;18.836;2023-09-19T03:10:15;22.71;65.74
77693;SHT31;66984;47.404;18.836;2023-09-19T03:11:18;22.67;65.76
77693;SHT31;66984;47.404;18.836;2023-09-19T03:12:24;22.64;65.91
77693;SHT31;66984;47.404;18.836;2023-09-19T03:13:27;22.64;65.84
77693;SHT31;66984;47.404;18.836;2023-09-19T03:14:30;22.61;66.00
77693;SHT31;66984;47.404;18.836;2023-09-19T03:15:41;22.61;66.08
77693;SHT31;66984;47.404;18.836;2023-09-19T03:16:46;22.56;66.17
77693;SHT31;66984;47.404;18.836;2023-09-19T03:17:49;22.54;66.20
77693;SHT31;66984;47.404;18.836;2023-09-19T03:18:52;22.53;66.16
77693;SHT31;66984;47.404;18.836;2023-09-19T03:19:55;22.54;66.18
77693;SHT31;66984;47.404;18.836;2023-09-19T03:20:59;22.54;66.19
77693;SHT31;66984;47.404;18.836;2023-09-19T03:22:03;22.56;66.33
77693;SHT31;66984;47.404;18.836;2023-09-19T03:23:06;22.54;66.40
77693;SHT31;66984;47.404;18.836;2023-09-19T03:24:09;22.50;66.45
77693;SHT31;66984;47.404;18.836;2023-09-19T03:25:12;22.54;66.40
77693;SHT31;66984;47.404;18.836;2023-09-19T03:26:15;22.54;66.31
77693;SHT31;66984;47.404;18.836;2023-09-19T03:27:18;22.53;66.16
77693;SHT31;66984;47.404;18.836;2023-09-19T03:28:23;22.54;66.11
77693;SHT31;66984;47.404;18.836;2023-09-19T03:29:26;22.54;66.07
77693;SHT31;66984;47.404;18.836;2023-09-19T03:30:29;22.54;66.10
77693;SHT31;66984;47.404;18.836;2023-09-19T03:31:32;22.57;66.28
77693;SHT31;66984;47.404;18.836;2023-09-19T03:32:35;22.57;66.56
77693;SHT31;66984;47.404;18.836;2023-09-19T03:33:38;22.61;66.58
77693;SHT31;66984;47.404;18.836;2023-09-19T03:34:42;22.59;66.58
77693;SHT31;66984;47.404;18.836;2023-09-19T03:35:52;22.57;66.51
77693;SHT31;66984;47.404;18.836;2023-09-19T03:36:55;22.57;66.51
77693;SHT31;66984;47.404;18.836;2023-09-19T03:37:58;22.56;66.56
77693;SHT31;66984;47.404;18.836;2023-09-19T03:39:02;22.59;66.51
77693;SHT31;66984;47.404;18.836;2023-09-19T03:40:08;22.59;66.50
77693;SHT31;66984;47.404;18.836;2023-09-19T03:41:12;22.59;66.54
77693;SHT31;66984;47.404;18.836;2023-09-19T03:42:17;22.60;66.57
77693;SHT31;66984;47.404;18.836;2023-09-19T03:43:20;22.63;66.65
77693;SHT31;66984;47.404;18.836;2023-09-19T03:44:23;22.59;66.72
77693;SHT31;66984;47.404;18.836;2023-09-19T03:45:26;22.61;66.74
77693;SHT31;66984;47.404;18.836;2023-09-19T03:46:28;22.59;66.79
77693;SHT31;66984;47.404;18.836;2023-09-19T03:47:32;22.57;66.86
77693;SHT31;66984;47.404;18.836;2023-09-19T03:48:36;22.57;66.93
77693;SHT31;66984;47.404;18.836;2023-09-19T03:49:39;22.57;66.95
77693;SHT31;66984;47.404;18.836;2023-09-19T03:50:42;22.57;67.02
77693;SHT31;66984;47.404;18.836;2023-09-19T03:51:46;22.56;67.03
77693;SHT31;66984;47.404;18.836;2023-09-19T03:52:49;22.56;67.07
77693;SHT31;66984;47.404;18.836;2023-09-19T03:53:52;22.57;67.08
77693;SHT31;66984;47.404;18.836;2023-09-19T03:54:55;22.56;67.15
77693;SHT31;66984;47.404;18.836;2023-09-19T03:55:58;22.56;67.22
77693;SHT31;66984;47.404;18.836;2023-09-19T03:57:03;22.51;67.34
77693;SHT31;66984;47.404;18.836;2023-09-19T03:58:06;22.54;67.36
77693;SHT31;66984;47.404;18.836;2023-09-19T03:59:09;22.54;67.45
77693;SHT31;66984;47.404;18.836;2023-09-19T04:00:13;22.53;67.44
77693;SHT31;66984;47.404;18.836;2023-09-19T04:01:17;22.54;67.27
77693;SHT31;66984;47.404;18.836;2023-09-19T04:02:21;22.51;67.21
77693;SHT31;66984;47.404;18.836;2023-09-19T04:03:27;22.53;67.28
77693;SHT31;66984;47.404;18.836;2023-09-19T04:04:37;22.53;67.32
77693;SHT31;66984;47.404;18.836;2023-09-19T04:05:40;22.54;67.37
77693;SHT31;66984;47.404;18.836;2023-09-19T04:06:43;22.57;67.50
77693;SHT31;66984;47.404;18.836;2023-09-19T04:07:46;22.59;67.56
77693;SHT31;66984;47.404;18.836;2023-09-19T04:08:49;22.59;67.59
77693;SHT31;66984;47.404;18.836;2023-09-19T04:09:52;22.59;67.71
77693;SHT31;66984;47.404;18.836;2023-09-19T04:10:56;22.56;67.70
77693;SHT31;66984;47.404;18.836;2023-09-19T04:11:59;22.56;67.70
77693;SHT31;66984;47.404;18.836;2023-09-19T04:13:02;22.57;67.77
77693;SHT31;66984;47.404;18.836;2023-09-19T04:14:14;22.57;67.80
77693;SHT31;66984;47.404;18.836;2023-09-19T04:15:20;22.59;67.81
77693;SHT31;66984;47.404;18.836;2023-09-19T04:16:25;22.57;67.90
77693;SHT31;66984;47.404;18.836;2023-09-19T04:17:28;22.57;67.91
77693;SHT31;66984;47.404;18.836;2023-09-19T04:18:31;22.57;67.84
77693;SHT31;66984;47.404;18.836;2023-09-19T04:19:36;22.57;67.84
77693;SHT31;66984;47.404;18.836;2023-09-19T04:20:39;22.59;67.84
77693;SHT31;66984;47.404;18.836;2023-09-19T04:21:42;22.54;67.85
77693;SHT31;66984;47.404;18.836;2023-09-19T04:22:45;22.56;67.91
77693;SHT31;66984;47.404;18.836;2023-09-19T04:23:49;22.57;67.95
77693;SHT31;66984;47.404;18.836;2023-09-19T04:24:52;22.57;67.95
77693;SHT31;66984;47.404;18.836;2023-09-19T04:25:55;22.56;67.94
77693;SHT31;66984;47.404;18.836;2023-09-19T04:26:58;22.56;67.91
77693;SHT31;66984;47.404;18.836;2023-09-19T04:28:02;22.57;67.93
77693;SHT31;66984;47.404;18.836;2023-09-19T04:29:07;22.51;68.01
77693;SHT31;66984;47.404;18.836;2023-09-19T04:30:12;22.46;68.06
77693;SHT31;66984;47.404;18.836;2023-09-19T04:31:15;22.47;68.12
77693;SHT31;66984;47.404;18.836;2023-09-19T04:32:19;22.44;68.16
77693;SHT31;66984;47.404;18.836;2023-09-19T04:33:22;22.42;67.84
77693;SHT31;66984;47.404;18.836;2023-09-19T04:34:25;22.43;68.07
77693;SHT31;66984;47.404;18.836;2023-09-19T04:35:28;22.37;67.70
77693;SHT31;66984;47.404;18.836;2023-09-19T04:36:34;22.36;67.42
77693;SHT31;66984;47.404;18.836;2023-09-19T04:37:40;22.32;67.30
77693;SHT31;66984;47.404;18.836;2023-09-19T04:38:44;22.28;67.47
77693;SHT31;66984;47.404;18.836;2023-09-19T04:39:47;22.26;67.49
77693;SHT31;66984;47.404;18.836;2023-09-19T04:40:56;22.24;67.76
77693;SHT31;66984;47.404;18.836;2023-09-19T04:41:59;22.22;67.91
77693;SHT31;66984;47.404;18.836;2023-09-19T04:43:02;22.17;68.19
77693;SHT31;66984;47.404;18.836;2023-09-19T04:44:05;22.09;68.48
77693;SHT31;66984;47.404;18.836;2023-09-19T04:45:09;22.03;68.37
77693;SHT31;66984;47.404;18.836;2023-09-19T04:46:12;22.03;68.31
77693;SHT31;66984;47.404;18.836;2023-09-19T04:47:16;22.02;68.28
77693;SHT31;66984;47.404;18.836;2023-09-19T04:48:19;22.06;68.25
77693;SHT31;66984;47.404;18.836;2023-09-19T04:49:22;22.05;68.11
77693;SHT31;66984;47.404;18.836;2023-09-19T04:50:25;22.05;67.74
77693;SHT31;66984;47.404;18.836;2023-09-19T04:51:30;22.02;67.68
77693;SHT31;66984;47.404;18.836;2023-09-19T04:52:41;22.01;67.70
77693;SHT31;66984;47.404;18.836;2023-09-19T04:53:45;21.96;67.63
77693;SHT31;66984;47.404;18.836;2023-09-19T04:54:48;21.96;67.53
77693;SHT31;66984;47.404;18.836;2023-09-19T04:55:51;21.93;67.48
77693;SHT31;66984;47.404;18.836;2023-09-19T04:56:58;21.92;67.08
77693;SHT31;66984;47.404;18.836;2023-09-19T04:58:01;21.91;67.10
77693;SHT31;66984;47.404;18.836;2023-09-19T04:59:05;21.88;67.19
77693;SHT31;66984;47.404;18.836;2023-09-19T05:00:08;21.86;67.16
77693;SHT31;66984;47.404;18.836;2023-09-19T05:01:15;21.82;67.10
77693;SHT31;66984;47.404;18.836;2023-09-19T05:02:19;21.78;66.93
77693;SHT31;66984;47.404;18.836;2023-09-19T05:03:22;21.75;66.95
77693;SHT31;66984;47.404;18.836;2023-09-19T05:04:25;21.78;67.03
77693;SHT31;66984;47.404;18.836;2023-09-19T05:05:28;21.77;67.01
77693;SHT31;66984;47.404;18.836;2023-09-19T05:06:31;21.79;67.34
77693;SHT31;66984;47.404;18.836;2023-09-19T05:07:34;21.84;67.27
77693;SHT31;66984;47.404;18.836;2023-09-19T05:08:37;21.81;67.08
77693;SHT31;66984;47.404;18.836;2023-09-19T05:09:41;21.84;66.94
77693;SHT31;66984;47.404;18.836;2023-09-19T05:10:45;21.79;67.05
77693;SHT31;66984;47.404;18.836;2023-09-19T05:11:48;21.79;66.77
77693;SHT31;66984;47.404;18.836;2023-09-19T05:12:54;21.77;66.76
77693;SHT31;66984;47.404;18.836;2023-09-19T05:13:57;21.72;66.79
77693;SHT31;66984;47.404;18.836;2023-09-19T05:15:00;21.74;66.75
77693;SHT31;66984;47.404;18.836;2023-09-19T05:16:04;21.74;66.81
77693;SHT31;66984;47.404;18.836;2023-09-19T05:17:07;21.71;66.85
77693;SHT31;66984;47.404;18.836;2023-09-19T05:18:10;21.71;66.77
77693;SHT31;66984;47.404;18.836;2023-09-19T05:19:13;21.71;66.72
77693;SHT31;66984;47.404;18.836;2023-09-19T05:20:16;21.69;66.76
77693;SHT31;66984;47.404;18.836;2023-09-19T05:21:21;21.65;66.67
77693;SHT31;66984;47.404;18.836;2023-09-19T05:22:27;21.64;66.77
77693;SHT31;66984;47.404;18.836;2023-09-19T05:23:30;21.64;66.89
77693;SHT31;66984;47.404;18.836;2023-09-19T05:24:33;21.66;66.82
77693;SHT31;66984;47.404;18.836;2023-09-19T05:25:37;21.69;66.79
77693;SHT31;66984;47.404;18.836;2023-09-19T05:26:41;21.68;66.75
77693;SHT31;66984;47.404;18.836;2023-09-19T05:27:44;21.68;66.68
77693;SHT31;66984;47.404;18.836;2023-09-19T05:28:47;21.69;66.71
77693;SHT31;66984;47.404;18.836;2023-09-19T05:29:53;21.69;66.61
77693;SHT31;66984;47.404;18.836;2023-09-19T05:31:00;21.74;66.65
77693;SHT31;66984;47.404;18.836;2023-09-19T05:32:05;21.74;66.80
77693;SHT31;66984;47.404;18.836;2023-09-19T05:33:08;21.72;66.85
77693;SHT31;66984;47.404;18.836;2023-09-19T05:34:12;21.77;66.91
77693;SHT31;66984;47.404;18.836;2023-09-19T05:35:15;21.74;66.89
77693;SHT31;66984;47.404;18.836;2023-09-19T05:36:17;21.75;66.76
77693;SHT31;66984;47.404;18.836;2023-09-19T05:37:20;21.75;66.76
77693;SHT31;66984;47.404;18.836;2023-09-19T05:38:23;21.74;66.65
77693;SHT31;66984;47.404;18.836;2023-09-19T05:39:27;21.71;66.74
77693;SHT31;66984;47.404;18.836;2023-09-19T05:40:31;21.68;66.78
77693;SHT31;66984;47.404;18.836;2023-09-19T05:41:34;21.66;66.76
77693;SHT31;66984;47.404;18.836;2023-09-19T05:42:39;21.68;66.97
77693;SHT31;66984;47.404;18.836;2023-09-19T05:43:43;21.65;66.86
77693;SHT31;66984;47.404;18.836;2023-09-19T05:44:47;21.66;66.97
77693;SHT31;66984;47.404;18.836;2023-09-19T05:45:50;21.62;67.13
77693;SHT31;66984;47.404;18.836;2023-09-19T05:46:54;21.61;67.07
77693;SHT31;66984;47.404;18.836;2023-09-19T05:48:08;21.64;67.13
77693;SHT31;66984;47.404;18.836;2023-09-19T05:49:12;21.64;67.39
77693;SHT31;66984;47.404;18.836;2023-09-19T05:50:15;21.64;67.39
77693;SHT31;66984;47.404;18.836;2023-09-19T05:51:19;21.62;67.38
77693;SHT31;66984;47.404;18.836;2023-09-19T05:52:25;21.59;67.14
77693;SHT31;66984;47.404;18.836;2023-09-19T05:53:28;21.55;67.23
77693;SHT31;66984;47.404;18.836;2023-09-19T05:54:31;21.54;67.38
77693;SHT31;66984;47.404;18.836;2023-09-19T05:55:35;21.51;67.65
77693;SHT31;66984;47.404;18.836;2023-09-19T05:56:38;21.51;67.69
77693;SHT31;66984;47.404;18.836;2023-09-19T05:57:41;21.50;67.84
77693;SHT31;66984;47.404;18.836;2023-09-19T05:58:45;21.50;67.86
77693;SHT31;66984;47.404;18.836;2023-09-19T05:59:48;21.50;67.82
77693;SHT31;66984;47.404;18.836;2023-09-19T06:00:53;21.47;67.79
77693;SHT31;66984;47.404;18.836;2023-09-19T06:01:56;21.45;67.89
77693;SHT31;66984;47.404;18.836;2023-09-19T06:02:59;21.43;68.03
77693;SHT31;66984;47.404;18.836;2023-09-19T06:04:02;21.40;68.27
77693;SHT31;66984;47.404;18.836;2023-09-19T06:05:07;21.35;68.12
77693;SHT31;66984;47.404;18.836;2023-09-19T06:06:13;21.34;68.11
77693;SHT31;66984;47.404;18.836;2023-09-19T06:07:15;21.35;68.24
77693;SHT31;66984;47.404;18.836;2023-09-19T06:08:19;21.37;68.38
77693;SHT31;66984;47.404;18.836;2023-09-19T06:09:22;21.38;68.42
77693;SHT31;66984;47.404;18.836;2023-09-19T06:10:26;21.41;68.45
77693;SHT31;66984;47.404;18.836;2023-09-19T06:11:31;21.44;68.32
77693;SHT31;66984;47.404;18.836;2023-09-19T06:12:40;21.45;68.41
77693;SHT31;66984;47.404;18.836;2023-09-19T06:13:46;21.43;68.29
77693;SHT31;66984;47.404;18.836;2023-09-19T06:14:50;21.41;68.26
77693;SHT31;66984;47.404;18.836;2023-09-19T06:15:53;21.43;68.14
77693;SHT31;66984;47.404;18.836;2023-09-19T06:16:56;21.41;68.19
77693;SHT31;66984;47.404;18.836;2023-09-19T06:17:59;21.44;68.33
77693;SHT31;66984;47.404;18.836;2023-09-19T06:19:04;21.44;68.34
77693;SHT31;66984;47.404;18.836;2023-09-19T06:20:11;21.47;68.38
77693;SHT31;66984;47.404;18.836;2023-09-19T06:21:18;21.48;68.33
77693;SHT31;66984;47.404;18.836;2023-09-19T06:22:21;21.50;68.35
77693;SHT31;66984;47.404;18.836;2023-09-19T06:23:24;21.50;68.38
77693;SHT31;66984;47.404;18.836;2023-09-19T06:24:29;21.48;68.42
77693;SHT31;66984;47.404;18.836;2023-09-19T06:25:32;21.50;68.55
77693;SHT31;66984;47.404;18.836;2023-09-19T06:26:35;21.48;68.52
77693;SHT31;66984;47.404;18.836;2023-09-19T06:27:41;21.50;68.49
77693;SHT31;66984;47.404;18.836;2023-09-19T06:28:45;21.47;68.51
77693;SHT31;66984;47.404;18.836;2023-09-19T06:29:48;21.43;68.57
77693;SHT31;66984;47.404;18.836;2023-09-19T06:30:51;21.40;68.78
77693;SHT31;66984;47.404;18.836;2023-09-19T06:31:54;21.37;69.02
77693;SHT31;66984;47.404;18.836;2023-09-19T06:32:58;21.34;69.24
77693;SHT31;66984;47.404;18.836;2023-09-19T06:34:02;21.35;69.82
77693;SHT31;66984;47.404;18.836;2023-09-19T06:35:06;21.31;70.02
77693;SHT31;66984;47.404;18.836;2023-09-19T06:36:13;21.27;70.90
77693;SHT31;66984;47.404;18.836;2023-09-19T06:37:17;21.24;70.89
77693;SHT31;66984;47.404;18.836;2023-09-19T06:38:21;21.23;70.83
77693;SHT31;66984;47.404;18.836;2023-09-19T06:39:23;21.22;71.29
77693;SHT31;66984;47.404;18.836;2023-09-19T06:40:28;21.22;71.34
77693;SHT31;66984;47.404;18.836;2023-09-19T06:41:33;21.17;71.66
77693;SHT31;66984;47.404;18.836;2023-09-19T06:42:36;21.16;71.92
77693;SHT31;66984;47.404;18.836;2023-09-19T06:43:39;21.10;72.18
77693;SHT31;66984;47.404;18.836;2023-09-19T06:44:43;21.02;72.83
77693;SHT31;66984;47.404;18.836;2023-09-19T06:45:46;21.02;72.81
77693;SHT31;66984;47.404;18.836;2023-09-19T06:46:49;21.02;72.76
77693;SHT31;66984;47.404;18.836;2023-09-19T06:47:52;21.00;72.95
77693;SHT31;66984;47.404;18.836;2023-09-19T06:49:01;20.99;73.28
77693;SHT31;66984;47.404;18.836;2023-09-19T06:50:09;20.96;73.18
77693;SHT31;66984;47.404;18.836;2023-09-19T06:51:15;20.96;73.38
77693;SHT31;66984;47.404;18.836;2023-09-19T06:52:18;20.95;73.44
77693;SHT31;66984;47.404;18.836;2023-09-19T06:53:22;20.92;73.46
77693;SHT31;66984;47.404;18.836;2023-09-19T06:54:26;20.90;73.43
77693;SHT31;66984;47.404;18.836;2023-09-19T06:55:33;20.96;73.41
77693;SHT31;66984;47.404;18.836;2023-09-19T06:56:37;20.93;73.78
77693;SHT31;66984;47.404;18.836;2023-09-19T06:57:39;20.95;73.72